Latest Weather Observations for Munglinup West

IDW60801

Issued at 2:33 pm WST Saturday 25 June 2016 (issued every 30 minutes, with the page automatically refreshed every 10 minutes)

About weather observations | Map of weather stations | Latest weather observations for WA | Other Formats
Station Details ID: 012044 Name: MUNGLINUP WEST Lat: -33.55 Lon: 120.70 Height: 220.0 m
Data from the previous 72 hours. | See also: Recent months at Munglinup West
Date/Time
WST
Temp
°C
App
Temp
°C
Dew
Point
°C
Rel
Hum
%
Delta-T
°C
Wind Press
QNH
hPa
Press
MSL
hPa
Rain since
9am
mm
Dir  Spd
km/h
Gust
km/h
Spd
kts
Gust
kts
25/02:30pm 10.5 7.6 9.7 95 0.4 WSW 15 20 8 11 1017.7 1017.7 0.0
25/02:00pm 12.1 7.3 8.8 80 1.7 SW 24 33 13 18 1017.3 1017.3 0.0
25/01:30pm 13.0 9.1 9.6 80 1.8 WSW 20 26 11 14 1016.9 1016.9 0.0
25/01:00pm 12.7 8.5 9.9 83 1.4 W 22 30 12 16 1017.1 1017.1 0.0
25/12:30pm 12.1 7.8 9.5 84 1.3 W 22 30 12 16 1017.2 1017.2 0.0
25/12:00pm 11.7 6.2 9.3 85 1.2 W 28 37 15 20 1017.4 1017.4 0.0
25/11:30am 12.2 5.6 7.9 75 2.1 W 32 43 17 23 1017.7 1017.7 0.0
25/11:00am 12.5 7.4 7.6 72 2.4 W 24 39 13 21 1017.7 1017.7 0.0
25/10:30am 12.7 8.8 7.0 68 2.8 WNW 17 26 9 14 1017.6 1017.6 0.0
25/10:00am 12.4 8.0 6.5 67 2.8 WNW 19 33 10 18 1017.7 1017.7 0.0
25/09:30am 10.6 6.4 5.8 72 2.2 NW 17 24 9 13 1017.6 1017.6 0.0
25/09:00am 11.4 6.9 5.9 69 2.6 NW 19 26 10 14 1017.5 1017.5 0.0
25/08:30am 9.9 6.2 6.1 77 1.8 NW 15 20 8 11 1017.3 1017.3 0.0
25/08:00am 7.4 3.8 4.9 84 1.1 NNW 13 20 7 11 1017.0 1017.0 0.0
25/07:30am 6.1 2.3 4.1 87 0.9 NNW 13 17 7 9 1016.9 1016.9 0.0
25/07:00am 6.1 2.7 3.9 86 0.9 N 11 17 6 9 1016.5 1016.4 0.0
25/06:30am 6.6 2.9 4.4 86 1.0 N 13 17 7 9 1016.3 1016.2 0.0
25/06:00am 5.9 2.1 4.1 88 0.8 NNW 13 19 7 10 1016.5 1016.4 0.0
25/05:30am 5.1 1.2 3.4 89 0.7 N 13 19 7 10 1016.5 1016.4 0.0
25/05:00am 5.3 1.1 3.6 89 0.7 N 15 24 8 13 1016.4 1016.3 0.0
25/04:30am 5.3 0.7 3.8 90 0.6 NNW 17 22 9 12 1016.4 1016.3 0.0
25/04:00am 4.5 0.6 3.2 91 0.5 N 13 19 7 10 1016.4 1016.3 0.0
25/03:30am 4.5 0.6 3.3 92 0.5 N 13 15 7 8 1016.6 1016.6 0.0
25/03:00am 4.4 1.2 2.8 89 0.7 N 9 15 5 8 1016.7 1016.7 0.0
25/02:30am 5.6 2.1 3.6 87 0.8 N 11 17 6 9 1017.0 1017.0 0.0
25/02:00am 5.9 2.5 3.9 87 0.9 NNW 11 15 6 8 1017.3 1017.3 0.0
25/01:30am 5.7 2.2 3.7 87 0.9 NNW 11 15 6 8 1017.4 1017.4 0.0
25/01:00am 6.0 2.9 3.8 86 0.9 NNW 9 13 5 7 1017.7 1017.7 0.0
25/12:30am 6.1 3.1 4.3 88 0.8 NNW 9 13 5 7 1018.0 1018.0 0.0
25/12:00am 6.0 3.0 4.0 87 0.9 N 9 13 5 7 1018.0 1018.0 0.0
 
Date/Time
WST
Temp
°C
App
Temp
°C
Dew
Point
°C
Rel
Hum
%
Delta-T
°C
Wind Press
QNH
hPa
Press
MSL
hPa
Rain since
9am
mm
Dir  Spd
km/h
Gust
km/h
Spd
kts
Gust
kts
24/11:30pm 6.6 3.6 4.3 85 1.0 NNW 9 13 5 7 1018.2 1018.2 0.0
24/11:00pm 6.4 3.1 4.4 87 0.9 NNW 11 13 6 7 1018.4 1018.4 0.0
24/10:30pm 6.0 3.0 4.0 87 0.9 N 9 11 5 6 1018.3 1018.3 0.0
24/10:00pm 6.7 3.8 4.5 86 1.0 NNW 9 13 5 7 1018.1 1018.1 0.0
24/09:30pm 7.0 4.1 4.7 85 1.0 N 9 13 5 7 1018.3 1018.3 0.0
24/09:00pm 7.0 4.0 4.3 83 1.2 N 9 11 5 6 1018.5 1018.5 0.0
24/08:30pm 7.7 5.2 4.7 81 1.3 N 7 9 4 5 1018.7 1018.7 0.0
24/08:00pm 8.6 6.3 4.8 77 1.7 N 6 7 3 4 1018.6 1018.6 0.0
24/07:30pm 10.0 7.9 5.6 74 2.0 N 6 7 3 4 1018.6 1018.6 0.0
24/07:00pm 10.3 8.2 5.7 73 2.1 N 6 9 3 5 1018.4 1018.4 0.0
24/06:30pm 10.6 8.5 5.8 72 2.2 NW 6 9 3 5 1018.6 1018.6 0.0
24/06:00pm 10.9 8.5 5.4 69 2.5 NNW 7 11 4 6 1018.4 1018.4 0.0
24/05:30pm 11.1 8.8 5.6 69 2.6 NNW 7 11 4 6 1018.2 1018.2 0.0
24/05:00pm 11.5 8.8 5.4 66 2.8 N 9 13 5 7 1018.2 1018.2 0.0
24/04:30pm 11.8 9.6 6.1 68 2.7 N 7 11 4 6 1018.0 1018.0 0.0
24/04:00pm 12.2 9.5 5.6 64 3.1 N 9 15 5 8 1017.9 1017.9 0.0
24/03:30pm 13.0 9.1 5.2 59 3.7 N 15 22 8 12 1018.1 1018.1 0.0
24/03:00pm 12.9 8.4 4.3 56 4.0 NNW 17 28 9 15 1018.1 1018.1 0.0
24/02:30pm 13.8 8.3 4.1 52 4.5 NNW 22 30 12 16 1018.2 1018.2 0.0
24/02:00pm 14.4 11.0 5.7 56 4.2 N 13 20 7 11 1018.5 1018.5 0.0
24/01:30pm 14.5 10.1 5.0 53 4.5 NNW 17 28 9 15 1018.8 1018.8 0.0
24/01:00pm 13.2 8.8 4.9 57 3.9 NNW 17 24 9 13 1019.1 1019.1 0.0
24/12:30pm 12.9 8.1 4.8 58 3.8 NNW 19 32 10 17 1019.8 1019.7 0.0
24/12:00pm 12.5 8.1 5.0 60 3.5 NNW 17 26 9 14 1020.3 1020.2 0.0
24/11:30am 12.6 8.2 4.6 58 3.7 NNW 17 28 9 15 1021.0 1021.0 0.0
24/11:00am 12.9 8.5 4.8 58 3.8 NNW 17 26 9 14 1021.5 1021.5 0.0
24/10:30am 12.5 8.1 4.5 58 3.7 NNW 17 26 9 14 1021.9 1021.9 0.0
24/10:00am 11.9 7.8 6.0 67 2.8 NNW 17 28 9 15 1022.0 1022.0 0.0
24/09:30am 10.9 7.5 6.1 72 2.3 NNW 13 20 7 11 1022.2 1022.2 0.0
24/09:00am 9.5 6.5 6.2 80 1.5 NNW 11 15 6 8 1022.3 1022.3 0.8
24/08:30am 8.0 5.7 5.8 86 1.0 NNW 7 11 4 6 1022.2 1022.2 0.8
24/08:00am 6.0 3.1 4.5 90 0.7 N 9 13 5 7 1022.0 1022.0 0.8
24/07:30am 4.3 1.1 3.3 93 0.4 N 9 15 5 8 1021.8 1021.8 0.8
24/07:00am 3.4 0.1 2.2 92 0.5 N 9 11 5 6 1021.4 1021.4 0.8
24/06:30am 3.3 -0.1 2.1 92 0.5 N 9 11 5 6 1021.3 1021.3 0.8
24/06:00am 3.5 0.2 2.3 92 0.5 N 9 9 5 5 1021.0 1021.0 0.8
24/05:30am 3.7 0.8 2.7 93 0.4 N 7 9 4 5 1021.0 1021.0 0.8
24/05:00am 3.6 0.3 2.6 93 0.4 N 9 9 5 5 1021.0 1021.0 0.8
24/04:30am 3.6 0.3 2.6 93 0.4 N 9 11 5 6 1021.0 1021.0 0.8
24/04:00am 3.6 -0.1 2.6 93 0.4 N 11 11 6 6 1021.0 1021.0 0.8
24/03:30am 4.6 1.5 3.4 92 0.5 NNW 9 9 5 5 1021.0 1021.0 0.8
24/03:00am 5.5 2.9 4.3 92 0.5 NNW 7 9 4 5 1021.1 1021.1 0.8
24/02:30am 6.6 4.3 5.6 93 0.4 NNW 7 9 4 5 1021.4 1021.4 0.8
24/02:00am 6.9 4.7 6.3 96 0.3 NNW 7 9 4 5 1021.5 1021.5 0.8
24/01:30am 7.0 4.9 6.6 97 0.2 NNW 7 11 4 6 1021.6 1021.6 0.8
24/01:00am 7.0 4.5 6.7 98 0.1 NNW 9 11 5 6 1021.6 1021.6 0.8
24/12:30am 6.7 4.1 6.3 97 0.2 NNW 9 13 5 7 1021.6 1021.6 0.8
24/12:00am 6.7 4.7 6.1 96 0.3 NNW 6 7 3 4 1021.7 1021.7 0.8
 
Date/Time
WST
Temp
°C
App
Temp
°C
Dew
Point
°C
Rel
Hum
%
Delta-T
°C
Wind Press
QNH
hPa
Press
MSL
hPa
Rain since
9am
mm
Dir  Spd
km/h
Gust
km/h
Spd
kts
Gust
kts
23/11:30pm 6.9 4.7 6.2 95 0.3 NW 7 7 4 4 1021.8 1021.8 0.8
23/11:00pm 7.4 5.5 6.5 94 0.4 WNW 6 7 3 4 1021.8 1021.8 0.8
23/10:30pm 7.9 6.4 7.0 94 0.4 W 4 6 2 3 1021.8 1021.8 0.8
23/10:00pm 7.6 6.1 6.7 94 0.4 W 4 4 2 2 1021.8 1021.8 0.8
23/09:30pm 8.1 7.5 7.2 94 0.4 CALM 0 0 0 0 1021.8 1021.8 0.8
23/09:00pm 8.6 6.3 7.5 93 0.5 W 9 13 5 7 1021.8 1021.8 0.8
23/08:30pm 8.9 5.4 7.4 90 0.7 WSW 15 24 8 13 1021.7 1021.7 0.8
23/08:00pm 8.8 5.8 7.9 94 0.4 WSW 13 17 7 9 1021.5 1021.5 0.8
23/07:30pm 8.7 5.4 7.9 95 0.4 WSW 15 20 8 11 1021.5 1021.5 0.8
23/07:00pm 9.0 6.8 7.8 92 0.6 WSW 9 19 5 10 1021.3 1021.3 0.8
23/06:30pm 8.8 7.4 7.1 89 0.8 WSW 4 6 2 3 1020.9 1020.9 0.8
23/06:00pm 9.1 7.3 7.1 87 0.9 S 6 7 3 4 1020.5 1020.5 0.8
23/05:30pm 9.6 6.6 7.5 87 1.0 SSW 13 17 7 9 1020.2 1020.1 0.8
23/05:00pm 9.7 6.9 7.1 84 1.2 SW 11 11 6 6 1020.0 1019.9 0.8
23/04:30pm 10.3 7.5 7.0 80 1.6 SW 11 13 6 7 1019.9 1019.8 0.8
23/04:00pm 11.2 7.7 7.3 77 1.9 SW 15 20 8 11 1019.5 1019.5 0.8
23/03:30pm 11.1 6.7 7.4 78 1.8 SW 20 26 11 14 1019.3 1019.3 0.8
23/03:00pm 11.2 6.6 8.2 82 1.5 SW 22 33 12 18 1019.2 1019.2 0.8
23/02:30pm 11.2 6.3 8.4 83 1.4 SW 24 32 13 17 1018.9 1018.9 0.8
23/02:00pm 11.6 7.5 8.6 82 1.5 SW 20 26 11 14 1018.7 1018.7 0.8
23/01:30pm 10.4 7.1 9.5 94 0.5 SW 17 22 9 12 1019.0 1019.0 0.8
23/01:00pm 10.9 7.1 9.7 92 0.6 SW 20 28 11 15 1018.9 1018.9 0.8
23/12:30pm 11.2 7.2 9.1 87 1.1 SW 20 28 11 15 1018.8 1018.8 0.6
23/12:00pm 10.1 4.5 8.7 91 0.7 SW 28 44 15 24 1019.1 1019.1 0.6
23/11:30am 11.6 7.6 9.0 84 1.3 WSW 20 30 11 16 1019.0 1019.0 0.4
23/11:00am 11.0 6.0 9.4 90 0.8 WSW 26 33 14 18 1019.1 1019.1 0.4
23/10:30am 10.1 6.6 10.1 100 0.0 WSW 19 26 10 14 1019.4 1019.4 0.4
23/10:00am 9.2 5.4 9.2 100 0.0 W 19 26 10 14 1019.4 1019.4 0.4
23/09:30am 8.6 5.4 8.6 100 0.0 W 15 20 8 11 1019.1 1019.1 0.4
23/09:00am 8.1 4.8 8.1 100 0.0 WSW 15 20 8 11 1018.6 1018.6 1.8
23/08:30am 8.0 5.5 8.0 100 0.0 WSW 11 15 6 8 1018.2 1018.2 1.4
23/08:00am 7.8 4.8 7.8 100 0.0 SW 13 17 7 9 1017.8 1017.8 1.0
23/07:30am 7.7 3.9 7.7 100 0.0 WSW 17 22 9 12 1017.3 1017.3 0.8
23/07:00am 7.7 3.9 7.7 100 0.0 WSW 17 22 9 12 1017.0 1017.0 0.8
23/06:30am 7.7 3.6 7.7 100 0.0 WSW 19 28 10 15 1016.4 1016.3 0.8
23/06:00am 7.6 3.4 7.6 100 0.0 WSW 19 26 10 14 1016.1 1016.0 0.6
23/05:30am 7.4 3.0 7.4 100 0.0 W 20 26 11 14 1015.8 1015.7 0.6
23/05:00am 7.8 4.1 7.8 100 0.0 W 17 24 9 13 1015.5 1015.4 0.6
23/04:30am 7.9 3.6 7.9 100 0.0 W 20 28 11 15 1015.3 1015.2 0.6
23/04:00am 8.0 3.9 8.0 100 0.0 W 19 24 10 13 1015.2 1015.1 0.6
23/03:30am 8.4 4.2 8.4 100 0.0 W 20 26 11 14 1015.0 1014.9 0.6
23/03:00am 8.6 4.5 8.6 100 0.0 W 20 26 11 14 1015.0 1014.9 0.6
23/02:30am 8.6 4.7 8.6 100 0.0 W 19 26 10 14 1014.8 1014.8 0.6
23/02:00am 8.9 4.5 8.9 100 0.0 W 22 28 12 15 1014.8 1014.8 0.6
23/01:30am 9.5 5.6 9.5 100 0.0 W 20 26 11 14 1014.7 1014.7 0.6
23/01:00am 9.1 5.7 9.1 100 0.0 W 17 20 9 11 1014.7 1014.7 0.6
23/12:30am 9.5 6.6 9.5 100 0.0 W 15 20 8 11 1014.6 1014.6 0.6
23/12:00am 10.1 7.3 10.1 100 0.0 WSW 15 20 8 11 1014.7 1014.7 0.6
 
Date/Time
WST
Temp
°C
App
Temp
°C
Dew
Point
°C
Rel
Hum
%
Delta-T
°C
Wind Press
QNH
hPa
Press
MSL
hPa
Rain since
9am
mm
Dir  Spd
km/h
Gust
km/h
Spd
kts
Gust
kts
22/11:30pm 10.2 6.5 10.1 99 0.1 SW 20 30 11 16 1014.6 1014.6 0.4
22/11:00pm 10.9 6.0 10.0 94 0.5 W 26 35 14 19 1014.4 1014.4 0.2
22/10:30pm 10.6 7.0 9.7 94 0.5 W 19 28 10 15 1014.2 1014.2 0.2
22/10:00pm 10.4 7.5 9.6 95 0.4 WNW 15 20 8 11 1014.0 1014.0 0.2
22/09:30pm 10.2 7.6 9.3 94 0.5 WNW 13 19 7 10 1014.0 1014.0 0.2
22/09:00pm 10.6 7.0 9.8 95 0.4 WNW 19 24 10 13 1013.9 1013.9 0.2
22/08:30pm 10.4 7.5 9.8 96 0.3 WNW 15 20 8 11 1013.7 1013.7 0.2
22/08:00pm 10.7 7.1 9.9 95 0.4 WNW 19 24 10 13 1013.6 1013.6 0.2
22/07:30pm 11.3 5.1 9.9 91 0.7 WSW 33 46 18 25 1013.8 1013.8 0.0
22/07:00pm 11.9 7.9 8.4 79 1.7 WNW 19 33 10 18 1013.3 1013.3 0.0
22/06:30pm 12.3 9.4 8.0 75 2.1 WNW 13 20 7 11 1013.0 1013.0 0.0
22/06:00pm 12.8 10.3 8.1 73 2.3 WNW 11 17 6 9 1012.8 1012.8 0.0
22/05:30pm 13.2 10.3 8.1 71 2.6 WNW 13 17 7 9 1012.6 1012.5 0.0
22/05:00pm 14.1 10.8 8.1 67 3.0 WNW 15 26 8 14 1012.4 1012.3 0.0
22/04:30pm 14.2 11.0 8.6 69 2.9 WNW 15 22 8 12 1012.2 1012.1 0.0
22/04:00pm 15.3 11.7 8.5 64 3.5 WNW 17 28 9 15 1012.0 1011.9 0.0
22/03:30pm 15.7 11.2 8.4 62 3.7 W 22 32 12 17 1012.0 1011.9 0.0
22/03:00pm 15.3 10.3 8.1 62 3.7 WNW 24 35 13 19 1012.1 1012.0 0.0

Other Formats:

Comma delimited format used in spreadsheet applications
http://www.bom.gov.au/fwo/IDW60801/IDW60801.95644.axf

JavaScript Object Notation format (JSON) in row-major order
http://www.bom.gov.au/fwo/IDW60801/IDW60801.95644.json